createdAt,value
2023-03-08T09:01:02.592Z,7.41
2023-03-08T09:02:02.661Z,4.38
2023-03-08T09:03:01.668Z,4.38
2023-03-08T09:04:02.630Z,5.72
2023-03-08T09:05:02.687Z,2.39
2023-03-08T09:06:02.517Z,4.68
2023-03-08T09:07:02.163Z,4.87
2023-03-08T09:08:02.322Z,3.64
2023-03-08T09:09:02.204Z,4.96
2023-03-08T09:10:01.903Z,4.58
2023-03-08T09:11:02.401Z,12.04
2023-03-08T09:12:02.294Z,8.4
2023-03-08T09:13:01.935Z,4.43
2023-03-08T09:14:01.985Z,5.36
2023-03-08T09:15:02.005Z,7.61
2023-03-08T09:16:02.490Z,8.85
2023-03-08T09:17:02.207Z,5.65
2023-03-08T09:18:02.014Z,6.11
2023-03-08T09:19:01.924Z,5.59
2023-03-08T09:20:01.675Z,3.3
2023-03-08T09:21:01.847Z,3.08
2023-03-08T09:22:01.823Z,3.41
2023-03-08T09:23:01.853Z,5.36
2023-03-08T09:24:01.869Z,4.08
2023-03-08T09:25:01.802Z,5.23
2023-03-08T09:26:02.544Z,5.02
2023-03-08T09:27:01.923Z,5.37
2023-03-08T09:28:01.788Z,4.37
2023-03-08T09:29:01.588Z,8.64
2023-03-08T09:30:01.653Z,6.54
2023-03-08T09:31:01.683Z,6.03
2023-03-08T09:32:01.614Z,3.89
2023-03-08T09:33:02.497Z,4.95
2023-03-08T09:34:02.316Z,8.42
2023-03-08T09:35:01.736Z,14.15
2023-03-08T09:36:01.961Z,5.02
2023-03-08T09:37:01.877Z,3.64
2023-03-08T09:38:01.814Z,4.02
2023-03-08T09:39:01.495Z,6.19
2023-03-08T09:40:01.390Z,4.41
2023-03-08T09:41:01.852Z,4.18
2023-03-08T09:42:01.819Z,4.95
2023-03-08T09:43:01.784Z,5.06
2023-03-08T09:44:01.727Z,4.19
2023-03-08T09:45:02.557Z,6.52
2023-03-08T09:46:01.763Z,2.84
2023-03-08T09:47:01.494Z,5.73
2023-03-08T09:48:02.556Z,6.21
2023-03-08T09:49:02.564Z,3.69
2023-03-08T09:50:02.276Z,5.01
2023-03-08T09:51:01.753Z,4.71
2023-03-08T09:52:01.675Z,4.71
2023-03-08T09:53:02.516Z,5.11
2023-03-08T09:54:02.328Z,5.11
2023-03-08T09:55:02.217Z,6.91
2023-03-08T09:56:02.405Z,3.84
2023-03-08T09:57:02.446Z,3.84
2023-03-08T09:58:02.257Z,3.48
2023-03-08T09:59:02.017Z,4.91
2023-03-08T10:00:02.214Z,7.58
2023-03-08T10:01:01.683Z,15.51
2023-03-08T10:02:02.540Z,6.44
2023-03-08T10:03:02.519Z,4.47
2023-03-08T10:04:02.194Z,6.75
2023-03-08T10:05:12.636Z,7.02
2023-03-08T10:06:02.156Z,4.04
2023-03-08T10:07:02.088Z,6.68
2023-03-08T10:08:02.106Z,6.49
2023-03-08T10:09:01.841Z,4.1
2023-03-08T10:10:02.044Z,3.58
2023-03-08T10:11:02.159Z,4.52
2023-03-08T10:12:01.677Z,3.86
2023-03-08T10:13:01.596Z,6.79
2023-03-08T10:14:02.435Z,5.39
2023-03-08T10:15:02.709Z,8.25
2023-03-08T10:16:02.161Z,4.04
2023-03-08T10:17:02.083Z,5.25
2023-03-08T10:18:01.916Z,7.25
2023-03-08T10:19:01.757Z,4.36
2023-03-08T10:20:01.584Z,5.35
2023-03-08T10:21:02.026Z,8.75
2023-03-08T10:22:01.745Z,7.09
2023-03-08T10:23:01.785Z,3.99
2023-03-08T10:24:01.752Z,19.82
2023-03-08T10:25:01.615Z,17.49
2023-03-08T10:26:01.694Z,6.52
2023-03-08T10:27:03.036Z,19.25
2023-03-08T10:28:01.795Z,12.04
2023-03-08T10:29:01.722Z,6.93
2023-03-08T10:30:01.772Z,6.79
2023-03-08T10:31:01.984Z,6.82
2023-03-08T10:32:02.013Z,13.51
2023-03-08T10:33:01.944Z,2.96
2023-03-08T10:34:01.782Z,6.24
2023-03-08T10:35:01.553Z,12.76
2023-03-08T10:36:01.822Z,7.19
2023-03-08T10:37:01.755Z,16.84
2023-03-08T10:38:01.644Z,11.15
2023-03-08T10:39:04.928Z,17.11
2023-03-08T10:40:02.518Z,6.86
2023-03-08T10:41:01.652Z,11.43
2023-03-08T10:42:01.636Z,17.25
2023-03-08T10:43:02.620Z,17.25
2023-03-08T10:44:02.463Z,15.49
2023-03-08T10:45:02.407Z,25.58
2023-03-08T10:46:02.591Z,20.16
2023-03-08T10:47:02.294Z,25.2
2023-03-08T10:48:02.271Z,34.29
2023-03-08T10:49:01.949Z,18.82
2023-03-08T10:50:02.056Z,21.05
2023-03-08T10:51:02.210Z,21.59
2023-03-08T10:52:02.180Z,12.7
2023-03-08T10:53:02.147Z,20.29
2023-03-08T10:54:02.102Z,13.01
2023-03-08T10:55:01.996Z,9.25
2023-03-08T10:56:02.076Z,11.06
2023-03-08T10:57:01.810Z,12.69
2023-03-08T10:58:01.874Z,11.13
2023-03-08T10:59:01.774Z,10.45
2023-03-08T11:00:02.577Z,10.44
2023-03-08T11:01:01.783Z,4.1
2023-03-08T11:02:02.424Z,5.13
2023-03-08T11:03:01.584Z,5.71
2023-03-08T11:04:02.403Z,9.59
2023-03-08T11:05:02.380Z,4.38
2023-03-08T11:06:02.478Z,2.51
2023-03-08T11:07:02.277Z,4.3
2023-03-08T11:08:02.070Z,6.54
2023-03-08T11:09:02.315Z,5.39
2023-03-08T11:10:01.929Z,2.97
2023-03-08T11:11:02.191Z,3.35
2023-03-08T11:12:02.049Z,2.57
2023-03-08T11:13:01.954Z,13.19
2023-03-08T11:14:01.956Z,7.51
2023-03-08T11:15:01.878Z,7.34
2023-03-08T11:16:02.279Z,5.62
2023-03-08T11:17:01.746Z,6.98
2023-03-08T11:18:01.881Z,7.89
2023-03-08T11:19:01.768Z,2.77
2023-03-08T11:20:01.699Z,7.45
2023-03-08T11:21:01.660Z,3.66
2023-03-08T11:22:02.441Z,3.08
2023-03-08T11:23:02.536Z,3.37
2023-03-08T11:24:02.319Z,9.25
2023-03-08T11:25:02.176Z,5.9
2023-03-08T11:26:02.239Z,3.85
2023-03-08T11:27:02.079Z,4.79
2023-03-08T11:28:02.046Z,2.31
2023-03-08T11:29:01.753Z,4.35
2023-03-08T11:30:01.990Z,4.95
2023-03-08T11:31:01.977Z,22.51
2023-03-08T11:32:01.833Z,1.7
2023-03-08T11:33:01.556Z,1.7
2023-03-08T11:34:02.494Z,4
2023-03-08T11:35:02.416Z,2.38
2023-03-08T11:36:01.703Z,2.38
2023-03-08T11:37:01.502Z,4.27
2023-03-08T11:38:01.551Z,6.26
2023-03-08T11:39:02.572Z,4.86
2023-03-08T11:40:02.172Z,6.08
2023-03-08T11:41:02.663Z,3.71
2023-03-08T11:42:02.179Z,5.58
2023-03-08T11:43:02.158Z,5.16
2023-03-08T11:44:02.186Z,1.92
2023-03-08T11:45:02.082Z,3.54
2023-03-08T11:46:02.208Z,1.94
2023-03-08T11:47:02.322Z,2.28
2023-03-08T11:48:02.046Z,6.14
2023-03-08T11:49:02.219Z,4.89
2023-03-08T11:50:02.252Z,6.54
2023-03-08T11:51:02.386Z,3.82
2023-03-08T11:52:02.196Z,5.09
2023-03-08T11:53:01.807Z,9.93
2023-03-08T11:54:01.958Z,3.89
2023-03-08T11:55:02.053Z,2.72
2023-03-08T11:56:02.442Z,2.57
2023-03-08T11:57:02.379Z,2.74
2023-03-08T11:58:02.295Z,5.22
2023-03-08T11:59:02.106Z,2.76
2023-03-08T12:00:02.157Z,11.92
2023-03-08T12:01:02.459Z,3.12
2023-03-08T12:02:02.383Z,4.66
2023-03-08T12:03:02.200Z,6.06
2023-03-08T12:04:04.089Z,2.17
2023-03-08T12:05:02.151Z,4.55
2023-03-08T12:06:02.227Z,4.25
2023-03-08T12:07:02.323Z,6.66
2023-03-08T12:08:02.149Z,5.99
2023-03-08T12:09:01.974Z,2.89
2023-03-08T12:10:01.835Z,7.51
2023-03-08T12:11:02.129Z,5.93
2023-03-08T12:12:03.470Z,3.81
2023-03-08T12:13:01.964Z,9.06
2023-03-08T12:14:01.747Z,16.8
2023-03-08T12:15:02.001Z,3.71
2023-03-08T12:16:01.815Z,8.51
2023-03-08T12:17:02.018Z,6.24
2023-03-08T12:18:01.965Z,4.68
2023-03-08T12:19:01.969Z,3.96
2023-03-08T12:20:01.709Z,10.49
2023-03-08T12:21:01.876Z,3.93
2023-03-08T12:22:01.790Z,3.01
2023-03-08T12:23:01.874Z,3.01
2023-03-08T12:24:03.758Z,5.92
2023-03-08T12:25:02.436Z,5.92
2023-03-08T12:26:02.535Z,6.29
2023-03-08T12:27:02.297Z,7.12
2023-03-08T12:28:02.024Z,7.12
2023-03-08T12:29:01.909Z,3.82
2023-03-08T12:30:02.108Z,3.44
2023-03-08T12:31:02.120Z,3.61
2023-03-08T12:32:02.142Z,3.24
2023-03-08T12:33:02.064Z,4.76
2023-03-08T12:34:01.712Z,1.61
2023-03-08T12:35:01.562Z,3.61
2023-03-08T12:36:01.913Z,2.7
2023-03-08T12:37:01.532Z,2.02
2023-03-08T12:38:01.711Z,4.1
2023-03-08T12:39:02.327Z,3.75
2023-03-08T12:40:02.247Z,2.32
2023-03-08T12:41:01.491Z,3.86
2023-03-08T12:42:02.414Z,7.04
2023-03-08T12:43:02.438Z,5.66
2023-03-08T12:44:02.372Z,2.07
2023-03-08T12:45:02.213Z,5.67
2023-03-08T12:46:02.482Z,3.39
2023-03-08T12:47:04.128Z,2.88
2023-03-08T12:48:02.211Z,6.01
2023-03-08T12:49:02.278Z,3.29
2023-03-08T12:50:01.939Z,4.21
2023-03-08T12:51:02.414Z,3.35
2023-03-08T12:52:02.394Z,1.62
2023-03-08T12:53:02.570Z,6.85
2023-03-08T12:54:02.489Z,9.06
2023-03-08T12:55:02.250Z,6.12
2023-03-08T12:56:01.684Z,1.28
2023-03-08T12:57:01.692Z,4.46
2023-03-08T12:58:02.195Z,2.88
2023-03-08T12:59:02.504Z,3.71
2023-03-08T13:00:01.429Z,3.4
2023-03-08T13:01:01.944Z,5.97
2023-03-08T13:02:01.752Z,4.35
2023-03-08T13:03:01.685Z,3.3
2023-03-08T13:04:02.413Z,1.9
2023-03-08T13:05:02.649Z,1.88
2023-03-08T13:06:01.696Z,4.29
2023-03-08T13:07:01.585Z,5.17
2023-03-08T13:08:02.380Z,2.24
2023-03-08T13:09:02.503Z,2.26
2023-03-08T13:10:02.252Z,2.86
2023-03-08T13:11:01.572Z,3
2023-03-08T13:12:01.414Z,4.69
2023-03-08T13:13:02.537Z,2.14
2023-03-08T13:14:02.519Z,2.14
2023-03-08T13:15:02.341Z,5.38
2023-03-08T13:16:01.752Z,4.09
2023-03-08T13:17:01.743Z,3.69
2023-03-08T13:18:01.637Z,7.26
2023-03-08T13:19:01.595Z,3.65
2023-03-08T13:20:02.607Z,4.74
2023-03-08T13:21:01.758Z,2.73
2023-03-08T13:22:02.613Z,7.55
2023-03-08T13:23:02.663Z,2.18
2023-03-08T13:24:02.430Z,7.14
2023-03-08T13:25:02.280Z,5.64
2023-03-08T13:26:02.467Z,7.73
2023-03-08T13:27:02.275Z,3.68
2023-03-08T13:28:02.103Z,3.14
2023-03-08T13:29:02.024Z,2.85
2023-03-08T13:30:02.098Z,15.25
2023-03-08T13:31:02.474Z,4.48
2023-03-08T13:32:02.350Z,7.23
2023-03-08T13:33:02.110Z,6.55
2023-03-08T13:34:02.132Z,3.05
2023-03-08T13:35:01.974Z,4.8
2023-03-08T13:36:02.396Z,2.7
2023-03-08T13:37:02.265Z,4.61
2023-03-08T13:38:02.567Z,1.25
2023-03-08T13:39:02.466Z,5.51
2023-03-08T13:40:02.163Z,3.62
2023-03-08T13:41:02.638Z,2.09
2023-03-08T13:42:02.466Z,5.64
2023-03-08T13:43:02.269Z,5.82
2023-03-08T13:44:02.226Z,3.31
2023-03-08T13:45:02.324Z,2.89
2023-03-08T13:46:01.696Z,2.93
2023-03-08T13:47:01.594Z,18.69
2023-03-08T13:48:02.313Z,3.82
2023-03-08T13:49:02.409Z,12.21
2023-03-08T13:50:02.191Z,6.26
2023-03-08T13:51:02.358Z,7.36
2023-03-08T13:52:02.387Z,2.64
2023-03-08T13:53:02.262Z,13.06
2023-03-08T13:54:02.168Z,9.65
2023-03-08T13:55:01.930Z,6.62
2023-03-08T13:56:02.635Z,7.5
2023-03-08T13:57:02.530Z,7.5
2023-03-08T13:58:02.373Z,6.09
2023-03-08T13:59:02.086Z,6.05
2023-03-08T14:00:02.294Z,6.05
2023-03-08T14:01:02.467Z,3.87
2023-03-08T14:02:01.888Z,3.55
2023-03-08T14:03:02.006Z,2.49
2023-03-08T14:04:01.845Z,4.72
2023-03-08T14:05:01.828Z,1.88
2023-03-08T14:06:02.089Z,4.77
2023-03-08T14:07:01.798Z,0.89
2023-03-08T14:08:01.683Z,4.06
2023-03-08T14:09:01.823Z,3.07
2023-03-08T14:10:01.710Z,3.15
2023-03-08T14:11:02.154Z,1.04
2023-03-08T14:12:01.941Z,5.02
2023-03-08T14:13:01.785Z,5.12
2023-03-08T14:14:01.440Z,1.38
2023-03-08T14:15:01.289Z,2.86
2023-03-08T14:16:01.986Z,3.76
2023-03-08T14:17:01.699Z,3.26
2023-03-08T14:18:01.739Z,2.49
2023-03-08T14:19:01.742Z,2.26
2023-03-08T14:20:01.754Z,1.39
2023-03-08T14:21:01.698Z,2.01
2023-03-08T14:22:01.766Z,2.31
2023-03-08T14:23:01.436Z,3.27
2023-03-08T14:24:02.446Z,2.25
2023-03-08T14:25:02.223Z,3.89
2023-03-08T14:26:01.932Z,1.64
2023-03-08T14:27:02.086Z,4.42
2023-03-08T14:28:01.804Z,2.07
2023-03-08T14:29:01.744Z,3.98
2023-03-08T14:30:01.843Z,2.28
2023-03-08T14:31:01.761Z,1.66
2023-03-08T14:32:02.118Z,1.19
2023-03-08T14:33:01.654Z,2.34
2023-03-08T14:34:01.693Z,2.19
2023-03-08T14:35:01.941Z,2.24
2023-03-08T14:36:01.916Z,1.92
2023-03-08T14:37:01.883Z,1.02
2023-03-08T14:38:01.646Z,2.2
2023-03-08T14:39:01.584Z,1.81
2023-03-08T14:40:02.397Z,4.74
2023-03-08T14:41:01.675Z,4.41
2023-03-08T14:42:01.437Z,5.36
2023-03-08T14:43:02.503Z,1.07
2023-03-08T14:44:02.422Z,1.13
2023-03-08T14:45:02.334Z,2.11
2023-03-08T14:46:02.459Z,2.18
2023-03-08T14:47:02.356Z,2.18
2023-03-08T14:48:02.204Z,2.25
2023-03-08T14:49:02.447Z,2.25
2023-03-08T14:50:01.942Z,1.32
2023-03-08T14:51:02.311Z,6.54
2023-03-08T14:52:02.265Z,2.18
2023-03-08T14:53:02.368Z,0.82
2023-03-08T14:54:02.120Z,0.77
2023-03-08T14:55:03.254Z,0.92
2023-03-08T14:56:02.222Z,5.24
2023-03-08T14:57:02.257Z,2.07
2023-03-08T14:58:01.923Z,1.37
2023-03-08T14:59:01.997Z,0.96
2023-03-08T15:00:01.778Z,0.69
2023-03-08T15:01:02.070Z,1.02
2023-03-08T15:02:01.942Z,1.21
2023-03-08T15:03:01.624Z,3.38
2023-03-08T15:04:01.527Z,1.72
2023-03-08T15:05:02.519Z,1.82
2023-03-08T15:06:01.819Z,1.78
2023-03-08T15:07:01.450Z,3.32
2023-03-08T15:08:02.570Z,2.15
2023-03-08T15:09:02.488Z,0.55
2023-03-08T15:10:02.310Z,2.47
2023-03-08T15:11:01.807Z,1.14
2023-03-08T15:12:01.601Z,1.52
2023-03-08T15:13:02.502Z,1.4
2023-03-08T15:14:02.482Z,0.78
2023-03-08T15:15:02.542Z,3.05
2023-03-08T15:16:01.661Z,0.89
2023-03-08T15:17:01.627Z,0.85
2023-03-08T15:18:01.573Z,2.24
2023-03-08T15:19:01.679Z,2.11
2023-03-08T15:20:02.602Z,1.52
2023-03-08T15:21:01.690Z,0.7
2023-03-08T15:22:01.546Z,1.28
2023-03-08T15:23:02.598Z,1.86
2023-03-08T15:24:02.500Z,7.63
2023-03-08T15:25:02.554Z,3.39
2023-03-08T15:26:01.727Z,6.07
2023-03-08T15:27:01.657Z,3.71
2023-03-08T15:28:01.647Z,9.86
2023-03-08T15:29:02.520Z,0.89
2023-03-08T15:30:02.409Z,1.01
2023-03-08T15:31:01.669Z,1.26
2023-03-08T15:32:01.655Z,1.46
2023-03-08T15:33:02.282Z,0.49
2023-03-08T15:34:02.262Z,1.06
2023-03-08T15:35:02.109Z,1.86
2023-03-08T15:36:02.573Z,2.21
2023-03-08T15:37:02.310Z,1.94
2023-03-08T15:38:02.291Z,1.94
2023-03-08T15:39:02.232Z,2.65
2023-03-08T15:40:02.358Z,1.12
2023-03-08T15:41:03.690Z,1.12
2023-03-08T15:42:01.902Z,1.11
2023-03-08T15:43:02.084Z,0.91
2023-03-08T15:44:01.656Z,1.59
2023-03-08T15:45:01.752Z,1.21
2023-03-08T15:46:02.120Z,1.09
2023-03-08T15:47:02.081Z,1.34
2023-03-08T15:48:01.842Z,1.89
2023-03-08T15:49:01.902Z,0.5
2023-03-08T15:50:01.706Z,0.58
2023-03-08T15:51:02.162Z,0.89
2023-03-08T15:52:01.773Z,0.62
2023-03-08T15:53:01.855Z,0.59
2023-03-08T15:54:01.721Z,1.77
2023-03-08T15:55:02.055Z,0.45
2023-03-08T15:56:02.116Z,1.16
2023-03-08T15:57:01.976Z,2.06
2023-03-08T15:58:01.648Z,0.84
2023-03-08T15:59:01.699Z,2.52
2023-03-08T16:00:01.542Z,1.06
2023-03-08T16:01:01.893Z,1.38
2023-03-08T16:02:01.911Z,0.58
2023-03-08T16:03:01.745Z,0.84
2023-03-08T16:04:01.872Z,1.22
2023-03-08T16:05:01.806Z,1.68
2023-03-08T16:06:02.097Z,0.92
2023-03-08T16:07:02.013Z,0.46
2023-03-08T16:08:01.732Z,1.77
2023-03-08T16:09:01.512Z,0.68
2023-03-08T16:10:01.650Z,2.17
2023-03-08T16:11:01.694Z,0.76
2023-03-08T16:12:01.568Z,1.14
2023-03-08T16:13:02.667Z,3.21
2023-03-08T16:14:02.331Z,1.65
2023-03-08T16:15:02.167Z,0.71
2023-03-08T16:16:02.385Z,3.87
2023-03-08T16:17:02.412Z,1.59
2023-03-08T16:18:02.370Z,0.89
2023-03-08T16:19:02.328Z,0.96
2023-03-08T16:20:02.138Z,0.53
2023-03-08T16:21:02.503Z,1.18
2023-03-08T16:22:02.158Z,0.99
2023-03-08T16:23:02.124Z,1.26
2023-03-08T16:24:01.780Z,0.52
2023-03-08T16:25:01.979Z,2.35
2023-03-08T16:26:13.918Z,1.93
2023-03-08T16:27:01.999Z,2.52
2023-03-08T16:28:01.571Z,2.52
2023-03-08T16:29:01.745Z,1.28
2023-03-08T16:30:01.520Z,2.41
2023-03-08T16:31:02.639Z,2.41
2023-03-08T16:32:02.474Z,0.81
2023-03-08T16:33:02.268Z,2.25
2023-03-08T16:34:02.073Z,9.82
2023-03-08T16:35:02.374Z,0.91
2023-03-08T16:36:01.841Z,2.06
2023-03-08T16:37:01.617Z,0.61
2023-03-08T16:38:02.658Z,2.38
2023-03-08T16:39:02.417Z,3.55
2023-03-08T16:40:02.407Z,1.16
2023-03-08T16:41:12.097Z,1.3
2023-03-08T16:42:02.392Z,0.78
2023-03-08T16:43:01.930Z,1.54
2023-03-08T16:44:02.044Z,0.76
2023-03-08T16:45:02.002Z,2.79
2023-03-08T16:46:02.395Z,0.52
2023-03-08T16:47:02.304Z,1.92
2023-03-08T16:48:02.229Z,1.12
2023-03-08T16:49:02.127Z,1.44
2023-03-08T16:50:01.870Z,0.98
2023-03-08T16:51:02.290Z,1.06
2023-03-08T16:52:02.287Z,0.61
2023-03-08T16:53:02.405Z,0.84
2023-03-08T16:54:02.170Z,1.4
2023-03-08T16:55:02.121Z,1.18
2023-03-08T16:56:02.054Z,6.85
2023-03-08T16:57:13.163Z,0.72
2023-03-08T16:58:02.113Z,0.96
2023-03-08T16:59:02.100Z,1.14
2023-03-08T17:00:02.088Z,0.58
2023-03-08T17:01:02.255Z,2.59
2023-03-08T17:02:02.057Z,1.14
2023-03-08T17:03:01.876Z,2.74
2023-03-08T17:04:01.808Z,3.16
2023-03-08T17:05:01.513Z,1.86
2023-03-08T17:06:02.185Z,4.35
2023-03-08T17:07:01.799Z,4.56
2023-03-08T17:08:01.759Z,3.32
2023-03-08T17:09:01.580Z,1.76
2023-03-08T17:10:01.480Z,1.88
2023-03-08T17:11:01.689Z,2.17
2023-03-08T17:12:02.556Z,3.51
2023-03-08T17:13:02.357Z,1.88
2023-03-08T17:14:02.092Z,5.76
2023-03-08T17:15:02.231Z,1.64
2023-03-08T17:16:02.593Z,3.01
2023-03-08T17:17:02.559Z,6.84
2023-03-08T17:18:02.331Z,6.84
2023-03-08T17:19:02.238Z,6.64
2023-03-08T17:20:02.454Z,6.64
2023-03-08T17:21:01.684Z,1.94
2023-03-08T17:22:01.712Z,3.44
2023-03-08T17:23:02.642Z,2.31
2023-03-08T17:24:02.346Z,1.81
2023-03-08T17:25:02.299Z,3.41
2023-03-08T17:26:02.308Z,5.76
2023-03-08T17:27:02.270Z,2.65
2023-03-08T17:28:02.106Z,3.9
2023-03-08T17:29:02.017Z,1.63
2023-03-08T17:30:02.120Z,1.64
2023-03-08T17:31:02.561Z,3.13
2023-03-08T17:32:02.438Z,1.14
2023-03-08T17:33:02.294Z,1.29
2023-03-08T17:34:02.145Z,2.08
2023-03-08T17:35:02.202Z,1.76
2023-03-08T17:36:02.377Z,1.54
2023-03-08T17:37:02.152Z,1.71
2023-03-08T17:38:02.061Z,2.32
2023-03-08T17:39:01.838Z,2.71
2023-03-08T17:40:02.096Z,2.03
2023-03-08T17:41:02.090Z,3.1
2023-03-08T17:42:01.991Z,2.39
2023-03-08T17:43:02.006Z,7.31
2023-03-08T17:44:01.707Z,2.46
2023-03-08T17:45:01.482Z,3.27
2023-03-08T17:46:02.155Z,2.84
2023-03-08T17:47:01.982Z,4.58
2023-03-08T17:48:01.647Z,4.08
2023-03-08T17:49:01.726Z,3.75
2023-03-08T17:50:01.759Z,1.97
2023-03-08T17:51:01.810Z,2.74
2023-03-08T17:52:01.851Z,1.88
2023-03-08T17:53:01.698Z,4.25
2023-03-08T17:54:01.616Z,2.65
2023-03-08T17:55:02.345Z,1.22
2023-03-08T17:56:01.876Z,1.15
2023-03-08T17:57:01.636Z,1.28
2023-03-08T17:58:02.299Z,3.03
2023-03-08T17:59:02.566Z,2.35
2023-03-08T18:00:02.558Z,2.94
2023-03-08T18:01:01.852Z,5.86
2023-03-08T18:02:01.941Z,1.42
2023-03-08T18:03:01.880Z,6.27
2023-03-08T18:04:01.905Z,2.13
2023-03-08T18:05:01.855Z,1.46
2023-03-08T18:06:02.010Z,1.55
2023-03-08T18:07:01.899Z,5.82
2023-03-08T18:08:01.818Z,2.52
2023-03-08T18:09:01.774Z,2.52
2023-03-08T18:10:02.455Z,2.59
2023-03-08T18:11:01.816Z,1.21
2023-03-08T18:12:01.587Z,1.61
2023-03-08T18:13:01.366Z,2.07
2023-03-08T18:14:02.431Z,2.83
2023-03-08T18:15:02.182Z,2.66
2023-03-08T18:16:02.185Z,5.74
2023-03-08T18:17:02.050Z,4.09
2023-03-08T18:18:02.232Z,1.54
2023-03-08T18:19:01.815Z,2.68
2023-03-08T18:20:02.040Z,1.52
2023-03-08T18:21:12.454Z,2.19
2023-03-08T18:22:02.288Z,2.29
2023-03-08T18:23:02.258Z,2.11
2023-03-08T18:24:02.384Z,1.6
2023-03-08T18:25:02.225Z,1.93
2023-03-08T18:26:01.790Z,3.76
2023-03-08T18:27:01.638Z,1.86
2023-03-08T18:28:01.568Z,1.86
2023-03-08T18:29:01.299Z,32.25
2023-03-08T18:30:02.253Z,1.02
2023-03-08T18:31:01.680Z,1.2
2023-03-08T18:32:02.561Z,1.45
2023-03-08T18:33:02.470Z,2.24
2023-03-08T18:34:02.309Z,2.87
2023-03-08T18:35:02.394Z,8.65
2023-03-08T18:36:02.738Z,0.88
2023-03-08T18:37:02.425Z,1.51
2023-03-08T18:38:02.347Z,1.58
2023-03-08T18:39:01.885Z,3
2023-03-08T18:40:02.077Z,3.4
2023-03-08T18:41:02.221Z,1.16
2023-03-08T18:42:02.258Z,0.86
2023-03-08T18:43:02.274Z,1.65
2023-03-08T18:44:02.091Z,1.76
2023-03-08T18:45:01.847Z,1.48
2023-03-08T18:46:02.180Z,2.66
2023-03-08T18:47:02.454Z,2.83
2023-03-08T18:48:02.222Z,2.02
2023-03-08T18:49:01.834Z,1.41
2023-03-08T18:50:02.174Z,2.37
2023-03-08T18:51:02.200Z,1.55
2023-03-08T18:52:02.026Z,1.05
2023-03-08T18:53:01.870Z,1.74
2023-03-08T18:54:01.743Z,1.05
2023-03-08T18:55:01.837Z,1.12
2023-03-08T18:56:02.048Z,3.4
2023-03-08T18:57:01.972Z,2.39
2023-03-08T18:58:01.870Z,2.22
2023-03-08T18:59:01.695Z,2.22
2023-03-08T19:00:02.459Z,0.7
2023-03-08T19:01:02.045Z,0.94
2023-03-08T19:02:01.977Z,0.94
2023-03-08T19:03:01.501Z,0.39
2023-03-08T19:04:01.551Z,0.7
2023-03-08T19:05:01.667Z,0.69
2023-03-08T19:06:01.949Z,0.98
2023-03-08T19:07:01.891Z,2.79
2023-03-08T19:08:02.922Z,0.54
2023-03-08T19:09:01.901Z,2.42
2023-03-08T19:10:01.876Z,0.6
2023-03-08T19:11:02.262Z,0.3
2023-03-08T19:12:02.165Z,0.34
2023-03-08T19:13:02.052Z,0.51
2023-03-08T19:14:01.888Z,0.45
2023-03-08T19:15:01.603Z,0.42
2023-03-08T19:16:01.810Z,0.41
2023-03-08T19:17:01.902Z,0.41
2023-03-08T19:18:01.656Z,0.29
2023-03-08T19:19:01.613Z,0.55
2023-03-08T19:20:02.518Z,0.24
2023-03-08T19:21:02.435Z,0.36
2023-03-08T19:22:02.378Z,0.38
2023-03-08T19:23:02.130Z,0.65
2023-03-08T19:24:01.995Z,0.44
2023-03-08T19:25:02.075Z,0.65
2023-03-08T19:26:02.164Z,0.61
2023-03-08T19:27:01.983Z,0.41
2023-03-08T19:28:01.528Z,0.36
2023-03-08T19:29:01.420Z,0.35
2023-03-08T19:30:02.595Z,0.27
2023-03-08T19:31:01.883Z,3.51
2023-03-08T19:32:01.745Z,0.61
2023-03-08T19:33:01.543Z,0.39
2023-03-08T19:34:01.648Z,1.39
2023-03-08T19:35:01.776Z,1.01
2023-03-08T19:36:01.824Z,0.39
2023-03-08T19:37:01.910Z,0.86
2023-03-08T19:38:01.762Z,0.61
2023-03-08T19:39:01.664Z,1.64
2023-03-08T19:40:02.456Z,1.18
2023-03-08T19:41:02.423Z,1.95
2023-03-08T19:42:02.254Z,0.42
2023-03-08T19:43:02.332Z,7.18
2023-03-08T19:44:02.030Z,0.78
2023-03-08T19:45:02.074Z,3.36
2023-03-08T19:46:02.325Z,1.41
2023-03-08T19:47:02.057Z,0.96
2023-03-08T19:48:02.144Z,1.36
2023-03-08T19:49:02.133Z,1.36
2023-03-08T19:50:02.125Z,0.58
2023-03-08T19:51:02.124Z,0.58
2023-03-08T19:52:01.969Z,0.52
2023-03-08T19:53:01.751Z,0.82
2023-03-08T19:54:01.599Z,0.58
2023-03-08T19:55:02.455Z,0.71
2023-03-08T19:56:01.646Z,0.41
2023-03-08T19:57:01.743Z,0.76
2023-03-08T19:58:01.436Z,0.57
2023-03-08T19:59:01.571Z,0.95
2023-03-08T20:00:02.389Z,0.55
2023-03-08T20:01:01.880Z,0.92
2023-03-08T20:02:01.533Z,0.35
2023-03-08T20:03:02.407Z,0.62
2023-03-08T20:04:02.170Z,0.67
2023-03-08T20:05:02.279Z,4.16
2023-03-08T20:06:01.790Z,0.48
2023-03-08T20:07:02.492Z,0.78
2023-03-08T20:08:02.485Z,1.34
2023-03-08T20:09:02.387Z,4.01
2023-03-08T20:10:15.275Z,0.84
2023-03-08T20:11:02.422Z,0.36
2023-03-08T20:12:02.450Z,0.3
2023-03-08T20:13:02.292Z,0.31
2023-03-08T20:14:02.139Z,0.29
2023-03-08T20:15:02.136Z,0.34
2023-03-08T20:16:01.704Z,0.32
2023-03-08T20:17:02.435Z,2.85
2023-03-08T20:18:02.346Z,0.79
2023-03-08T20:19:02.260Z,1.11
2023-03-08T20:20:01.883Z,0.54
2023-03-08T20:21:02.072Z,0.42
2023-03-08T20:22:02.174Z,0.78
2023-03-08T20:23:02.089Z,0.63
2023-03-08T20:24:02.109Z,0.28
2023-03-08T20:25:02.029Z,0.31
2023-03-08T20:26:02.448Z,0.35
2023-03-08T20:27:02.403Z,0.22
2023-03-08T20:28:02.272Z,0.66
2023-03-08T20:29:02.331Z,0.64
2023-03-08T20:30:02.074Z,0.3
2023-03-08T20:31:02.190Z,0.36
2023-03-08T20:32:02.356Z,0.3
2023-03-08T20:33:02.339Z,0.44
2023-03-08T20:34:02.299Z,0.28
2023-03-08T20:35:01.959Z,0.28
2023-03-08T20:36:02.236Z,0.29
2023-03-08T20:37:02.197Z,0.32
2023-03-08T20:38:02.375Z,0.3
2023-03-08T20:39:02.381Z,0.69
2023-03-08T20:40:02.131Z,0.69
2023-03-08T20:41:02.393Z,0.29
2023-03-08T20:42:02.099Z,0.49
2023-03-08T20:43:02.407Z,0.31
2023-03-08T20:44:02.323Z,0.3
2023-03-08T20:45:02.080Z,0.45
2023-03-08T20:46:02.296Z,0.41
2023-03-08T20:47:01.941Z,0.32
2023-03-08T20:48:01.959Z,1.32
2023-03-08T20:49:01.764Z,0.49
2023-03-08T20:50:01.844Z,0.35
2023-03-08T20:51:02.304Z,0.71
2023-03-08T20:52:02.078Z,0.4
2023-03-08T20:53:02.160Z,1.3
2023-03-08T20:54:02.086Z,0.32
2023-03-08T20:55:01.692Z,0.79
2023-03-08T20:56:01.573Z,0.24
2023-03-08T20:57:01.751Z,0.74
2023-03-08T20:58:01.483Z,1.45
2023-03-08T20:59:01.603Z,0.51
2023-03-08T21:00:02.341Z,0.95
2023-03-08T21:01:01.444Z,0.35
2023-03-08T21:02:01.721Z,0.44
2023-03-08T21:03:01.628Z,1.12
2023-03-08T21:04:01.681Z,0.75
2023-03-08T21:05:02.507Z,0.48
2023-03-08T21:06:01.659Z,0.39
2023-03-08T21:07:02.713Z,0.43
2023-03-08T21:08:02.353Z,0.26
2023-03-08T21:09:02.488Z,0.75
2023-03-08T21:10:02.208Z,0.35
2023-03-08T21:11:01.645Z,0.42
2023-03-08T21:12:02.447Z,1.28
2023-03-08T21:13:02.313Z,0.31
2023-03-08T21:14:02.162Z,0.47
2023-03-08T21:15:03.472Z,0.28
2023-03-08T21:16:02.406Z,0.54
2023-03-08T21:17:02.384Z,0.75
2023-03-08T21:18:02.452Z,0.41
2023-03-08T21:19:02.293Z,0.45
2023-03-08T21:20:01.984Z,0.49
2023-03-08T21:21:02.545Z,1.76
2023-03-08T21:22:02.559Z,0.41
2023-03-08T21:23:02.398Z,0.36
2023-03-08T21:24:02.280Z,0.35
2023-03-08T21:25:02.173Z,0.3
2023-03-08T21:26:02.599Z,0.3
2023-03-08T21:27:02.178Z,0.39
2023-03-08T21:28:02.344Z,0.72
2023-03-08T21:29:02.089Z,0.55
2023-03-08T21:30:02.166Z,0.55
2023-03-08T21:31:02.492Z,0.46
2023-03-08T21:32:02.127Z,0.68
2023-03-08T21:33:02.016Z,0.68
2023-03-08T21:34:01.901Z,0.36
2023-03-08T21:35:01.969Z,0.45
2023-03-08T21:36:02.227Z,1.06
2023-03-08T21:37:02.139Z,0.29
2023-03-08T21:38:02.045Z,0.45
2023-03-08T21:39:01.938Z,0.71
2023-03-08T21:40:01.916Z,0.75
2023-03-08T21:41:02.079Z,0.69
2023-03-08T21:42:01.922Z,0.65
2023-03-08T21:43:01.946Z,0.85
2023-03-08T21:44:01.664Z,0.54
2023-03-08T21:45:01.762Z,0.31
2023-03-08T21:46:02.314Z,0.3
2023-03-08T21:47:02.119Z,0.37
2023-03-08T21:48:01.926Z,0.81
2023-03-08T21:49:01.741Z,0.76
2023-03-08T21:50:01.740Z,0.25
2023-03-08T21:51:01.949Z,0.64
2023-03-08T21:52:01.752Z,0.34
2023-03-08T21:53:01.583Z,0.29
2023-03-08T21:54:01.617Z,0.78
2023-03-08T21:55:02.568Z,0.44
2023-03-08T21:56:01.782Z,0.81
2023-03-08T21:57:01.673Z,0.34
2023-03-08T21:58:01.579Z,0.45
2023-03-08T21:59:01.893Z,0.32
2023-03-08T22:00:01.744Z,0.33
2023-03-08T22:01:01.889Z,0.48
2023-03-08T22:02:01.868Z,0.31
2023-03-08T22:03:01.833Z,0.3
2023-03-08T22:04:01.487Z,0.36
2023-03-08T22:05:02.511Z,0.52
2023-03-08T22:06:01.976Z,0.61
2023-03-08T22:07:01.786Z,0.36
2023-03-08T22:08:01.841Z,0.33
2023-03-08T22:09:01.442Z,0.42
2023-03-08T22:10:02.306Z,0.93
2023-03-08T22:11:02.441Z,0.61
2023-03-08T22:12:02.393Z,0.6
2023-03-08T22:13:02.181Z,1
2023-03-08T22:14:02.012Z,0.73
2023-03-08T22:15:02.067Z,0.44
2023-03-08T22:16:02.260Z,1.04
2023-03-08T22:17:02.372Z,0.92
2023-03-08T22:18:02.317Z,0.3
2023-03-08T22:19:02.028Z,0.35
2023-03-08T22:20:01.953Z,0.35